createdAt,value
2018-11-03T00:02:23.133Z,4.28
2018-11-03T00:04:51.933Z,4.27
2018-11-03T00:07:20.828Z,4.40
2018-11-03T00:09:49.584Z,4.37
2018-11-03T00:12:18.461Z,4.40
2018-11-03T00:14:47.410Z,4.85
2018-11-03T00:17:16.093Z,4.77
2018-11-03T00:19:44.946Z,4.37
2018-11-03T00:22:13.779Z,4.60
2018-11-03T00:24:42.721Z,4.40
2018-11-03T00:27:11.590Z,4.37
2018-11-03T00:29:40.378Z,5.27
2018-11-03T00:32:09.101Z,5.00
2018-11-03T00:34:38.070Z,4.87
2018-11-03T00:37:06.792Z,5.00
2018-11-03T00:39:35.518Z,5.03
2018-11-03T00:42:04.531Z,4.60
2018-11-03T00:44:33.287Z,5.40
2018-11-03T00:47:01.996Z,5.30
2018-11-03T00:49:30.890Z,5.53
2018-11-03T00:51:59.591Z,5.33
2018-11-03T00:54:28.329Z,6.47
2018-11-03T00:56:57.408Z,6.37
2018-11-03T00:59:26.155Z,6.20
2018-11-03T01:01:54.914Z,6.00
2018-11-03T01:04:23.743Z,6.33
2018-11-03T01:06:52.489Z,6.07
2018-11-03T01:09:21.212Z,6.80
2018-11-03T01:11:49.986Z,7.30
2018-11-03T01:14:18.682Z,6.60
2018-11-03T01:16:47.487Z,6.63
2018-11-03T01:19:16.355Z,6.80
2018-11-03T01:21:45.097Z,7.08
2018-11-03T01:24:13.880Z,6.83
2018-11-03T01:26:42.773Z,7.22
2018-11-03T01:29:11.841Z,7.53
2018-11-03T01:31:40.587Z,7.20
2018-11-03T01:34:09.564Z,7.53
2018-11-03T01:36:38.392Z,8.00
2018-11-03T01:39:09.325Z,8.27
2018-11-03T01:41:38.359Z,8.47
2018-11-03T01:44:07.150Z,7.77
2018-11-03T01:46:36.933Z,7.53
2018-11-03T01:49:05.995Z,7.78
2018-11-03T01:51:34.742Z,8.20
2018-11-03T01:54:03.472Z,8.23
2018-11-03T01:56:32.286Z,8.13
2018-11-03T01:59:00.973Z,8.13
2018-11-03T02:01:29.668Z,8.00
2018-11-03T02:03:58.468Z,8.33
2018-11-03T02:06:27.276Z,8.90
2018-11-03T02:08:55.940Z,9.00
2018-11-03T02:11:24.674Z,8.50
2018-11-03T02:13:53.386Z,8.93
2018-11-03T02:16:22.116Z,8.85
2018-11-03T02:18:51.008Z,9.03
2018-11-03T02:21:19.726Z,8.87
2018-11-03T02:23:48.522Z,9.20
2018-11-03T02:26:17.349Z,9.17
2018-11-03T02:28:45.998Z,9.67
2018-11-03T02:31:14.679Z,9.43
2018-11-03T02:33:43.527Z,8.88
2018-11-03T02:36:12.209Z,9.20
2018-11-03T02:38:40.962Z,9.53
2018-11-03T02:41:09.886Z,10.20
2018-11-03T02:43:38.543Z,9.13
2018-11-03T02:46:07.286Z,9.27
2018-11-03T02:48:36.345Z,9.43
2018-11-03T02:51:05.235Z,9.47
2018-11-03T02:53:34.039Z,9.30
2018-11-03T02:56:03.219Z,9.07
2018-11-03T02:58:31.901Z,8.93
2018-11-03T03:01:00.555Z,9.27
2018-11-03T03:03:29.265Z,9.10
2018-11-03T03:05:57.958Z,9.35
2018-11-03T03:08:26.702Z,8.83
2018-11-03T03:10:55.498Z,9.90
2018-11-03T03:13:24.171Z,9.53
2018-11-03T03:15:52.871Z,9.83
2018-11-03T03:18:21.826Z,10.30
2018-11-03T03:20:51.054Z,9.78
2018-11-03T03:23:19.761Z,9.40
2018-11-03T03:25:48.547Z,8.97
2018-11-03T03:28:17.208Z,9.78
2018-11-03T03:30:45.920Z,9.68
2018-11-03T03:33:14.905Z,9.43
2018-11-03T03:35:43.638Z,10.08
2018-11-03T03:38:12.381Z,9.77
2018-11-03T03:40:41.159Z,9.37
2018-11-03T03:43:09.847Z,9.87
2018-11-03T03:45:38.564Z,10.17
2018-11-03T03:48:07.443Z,9.97
2018-11-03T03:50:37.176Z,10.03
2018-11-03T03:53:05.870Z,10.40
2018-11-03T03:55:34.678Z,9.37
2018-11-03T03:58:03.425Z,9.63
2018-11-03T04:00:32.107Z,9.53
2018-11-03T04:03:00.834Z,10.20
2018-11-03T04:05:29.541Z,10.20
2018-11-03T04:07:58.226Z,10.10
2018-11-03T04:10:27.013Z,10.33
2018-11-03T04:12:55.743Z,10.97
2018-11-03T04:15:24.467Z,11.37
2018-11-03T04:17:53.259Z,10.95
2018-11-03T04:20:21.952Z,11.43
2018-11-03T04:22:50.769Z,10.77
2018-11-03T04:25:19.771Z,10.87
2018-11-03T04:27:48.534Z,10.33
2018-11-03T04:30:17.218Z,10.45
2018-11-03T04:32:46.221Z,11.47
2018-11-03T04:35:14.972Z,10.17
2018-11-03T04:37:43.658Z,10.80
2018-11-03T04:40:13.065Z,10.83
2018-11-03T04:42:42.125Z,10.37
2018-11-03T04:45:11.726Z,10.50
2018-11-03T04:47:40.577Z,10.80
2018-11-03T04:50:10.240Z,10.55
2018-11-03T04:52:39.033Z,10.57
2018-11-03T04:55:08.958Z,11.50
2018-11-03T04:57:37.602Z,11.10
2018-11-03T05:00:08.029Z,10.88
2018-11-03T05:02:37.387Z,10.50
2018-11-03T05:05:06.231Z,10.37
2018-11-03T05:07:34.963Z,10.87
2018-11-03T05:10:04.014Z,11.20
2018-11-03T05:12:32.676Z,11.60
2018-11-03T05:15:01.364Z,10.97
2018-11-03T05:17:30.138Z,10.70
2018-11-03T05:19:58.817Z,10.60
2018-11-03T05:22:27.496Z,11.03
2018-11-03T05:24:56.464Z,10.50
2018-11-03T05:27:25.123Z,11.45
2018-11-03T05:29:53.785Z,11.23
2018-11-03T05:32:22.574Z,11.60
2018-11-03T05:34:51.260Z,11.00
2018-11-03T05:37:19.918Z,12.80
2018-11-03T05:39:48.656Z,11.23
2018-11-03T05:42:17.326Z,11.12
2018-11-03T05:44:45.997Z,10.93
2018-11-03T05:47:14.839Z,12.43
2018-11-03T05:49:43.502Z,13.57
2018-11-03T05:52:12.206Z,14.30
2018-11-03T05:54:40.998Z,15.93
2018-11-03T05:57:09.727Z,16.07
2018-11-03T05:59:38.584Z,17.20
2018-11-03T06:02:07.477Z,17.00
2018-11-03T06:04:36.165Z,17.20
2018-11-03T06:07:05.125Z,16.57
2018-11-03T06:09:34.020Z,17.30
2018-11-03T06:12:02.746Z,16.10
2018-11-03T06:14:31.429Z,15.57
2018-11-03T06:17:00.438Z,14.90
2018-11-03T06:19:29.164Z,14.40
2018-11-03T06:21:57.926Z,14.37
2018-11-03T06:24:26.794Z,13.70
2018-11-03T06:26:55.791Z,12.47
2018-11-03T06:29:24.533Z,12.40
2018-11-03T06:31:53.456Z,11.90
2018-11-03T06:34:22.144Z,11.83
2018-11-03T06:36:50.813Z,12.90
2018-11-03T06:39:19.877Z,13.58
2018-11-03T06:41:48.567Z,12.25
2018-11-03T06:44:17.257Z,11.90
2018-11-03T06:46:46.149Z,11.95
2018-11-03T06:49:21.993Z,12.30
2018-11-03T06:51:52.051Z,11.80
2018-11-03T06:54:21.034Z,11.87
2018-11-03T06:56:49.745Z,12.28
2018-11-03T06:59:18.947Z,11.00
2018-11-03T07:01:47.707Z,11.73
2018-11-03T07:04:16.418Z,11.10
2018-11-03T07:06:45.307Z,11.10
2018-11-03T07:09:17.661Z,12.03
2018-11-03T07:11:47.366Z,11.30
2018-11-03T07:14:16.004Z,12.18
2018-11-03T07:16:44.678Z,11.95
2018-11-03T07:19:13.425Z,12.03
2018-11-03T07:21:42.300Z,12.70
2018-11-03T07:24:10.915Z,13.03
2018-11-03T07:26:39.699Z,13.27
2018-11-03T07:29:08.642Z,13.67
2018-11-03T07:31:37.574Z,13.55
2018-11-03T07:34:06.731Z,12.83
2018-11-03T07:36:35.457Z,12.13
2018-11-03T07:39:05.606Z,13.40
2018-11-03T07:41:34.721Z,11.97
2018-11-03T07:44:03.506Z,12.47
2018-11-03T07:46:32.121Z,12.93
2018-11-03T07:49:01.388Z,12.80
2018-11-03T07:51:29.995Z,12.53
2018-11-03T07:53:58.732Z,15.50
2018-11-03T07:56:27.618Z,13.03
2018-11-03T07:58:56.327Z,13.03
2018-11-03T08:01:25.022Z,12.85
2018-11-03T08:03:53.858Z,12.18
2018-11-03T08:06:22.550Z,13.10
2018-11-03T08:08:51.257Z,12.47
2018-11-03T08:11:19.971Z,13.13
2018-11-03T08:13:48.654Z,13.05
2018-11-03T08:16:17.331Z,14.47
2018-11-03T08:18:46.055Z,13.47
2018-11-03T08:21:14.741Z,12.13
2018-11-03T08:23:43.463Z,13.23
2018-11-03T08:26:12.145Z,14.00
2018-11-03T08:28:42.610Z,14.10
2018-11-03T08:31:11.531Z,12.70
2018-11-03T08:33:40.285Z,13.53
2018-11-03T08:36:08.984Z,13.73
2018-11-03T08:38:37.700Z,14.33
2018-11-03T08:41:07.082Z,13.87
2018-11-03T08:43:35.813Z,13.75
2018-11-03T08:46:04.888Z,14.07
2018-11-03T08:48:33.748Z,14.60
2018-11-03T08:51:02.537Z,14.47
2018-11-03T08:53:31.298Z,14.20
2018-11-03T08:56:00.158Z,13.93
2018-11-03T08:58:28.868Z,14.80
2018-11-03T09:00:57.620Z,15.08
2018-11-03T09:03:26.463Z,14.50
2018-11-03T09:05:55.126Z,14.37
2018-11-03T09:08:23.835Z,15.30
2018-11-03T09:10:52.959Z,15.83
2018-11-03T09:13:21.944Z,15.20
2018-11-03T09:15:50.634Z,14.77
2018-11-03T09:18:19.357Z,14.15
2018-11-03T09:20:48.116Z,13.77
2018-11-03T09:23:16.862Z,14.00
2018-11-03T09:25:45.683Z,14.53
2018-11-03T09:28:14.377Z,13.40
2018-11-03T09:30:43.110Z,13.07
2018-11-03T09:33:12.019Z,13.38
2018-11-03T09:35:40.691Z,13.98
2018-11-03T09:38:09.437Z,13.73
2018-11-03T09:40:38.258Z,13.30
2018-11-03T09:43:07.909Z,13.25
2018-11-03T09:45:36.563Z,13.57
2018-11-03T09:48:05.406Z,12.53
2018-11-03T09:50:34.207Z,12.97
2018-11-03T09:53:02.943Z,11.97
2018-11-03T09:55:31.804Z,12.47
2018-11-03T09:58:00.580Z,12.47
2018-11-03T10:00:29.343Z,12.97
2018-11-03T10:02:58.442Z,14.20
2018-11-03T10:05:27.625Z,12.63
2018-11-03T10:07:56.446Z,12.30
2018-11-03T10:10:25.250Z,12.13
2018-11-03T10:12:54.162Z,13.35
2018-11-03T10:15:22.865Z,12.80
2018-11-03T10:17:51.661Z,13.10
2018-11-03T10:20:20.501Z,12.40
2018-11-03T10:22:49.205Z,12.03
2018-11-03T10:25:19.874Z,12.47
2018-11-03T10:27:49.141Z,11.90
2018-11-03T10:30:18.487Z,12.15
2018-11-03T10:32:47.772Z,11.57
2018-11-03T10:35:16.604Z,11.05
2018-11-03T10:37:45.575Z,10.38
2018-11-03T10:40:16.037Z,11.18
2018-11-03T10:42:44.842Z,10.10
2018-11-03T10:45:14.826Z,10.77
2018-11-03T10:47:43.847Z,10.10
2018-11-03T10:50:17.317Z,10.85
2018-11-03T10:52:46.574Z,10.03
2018-11-03T10:55:16.643Z,10.57
2018-11-03T10:57:45.493Z,10.80
2018-11-03T11:00:21.905Z,13.30
2018-11-03T11:02:55.700Z,10.77
2018-11-03T11:05:29.799Z,10.98
2018-11-03T11:08:03.721Z,9.43
2018-11-03T11:10:37.827Z,9.63
2018-11-03T11:13:10.908Z,9.40
2018-11-03T11:15:39.818Z,9.93
2018-11-03T11:18:08.514Z,9.73
2018-11-03T11:20:38.137Z,9.30
2018-11-03T11:23:07.219Z,10.83
2018-11-03T11:25:35.933Z,10.58
2018-11-03T11:28:04.860Z,10.03
2018-11-03T11:30:37.914Z,10.70
2018-11-03T11:33:09.514Z,9.23
2018-11-03T11:35:38.437Z,14.07
2018-11-03T11:38:08.839Z,11.48
2018-11-03T11:40:38.357Z,8.85
2018-11-03T11:43:09.216Z,8.58
2018-11-03T11:45:38.323Z,8.57
2018-11-03T11:48:08.151Z,8.53
2018-11-03T11:50:37.060Z,8.83
2018-11-03T11:53:06.117Z,9.90
2018-11-03T11:55:34.875Z,9.53
2018-11-03T11:58:03.864Z,8.50
2018-11-03T12:00:32.630Z,8.23
2018-11-03T12:03:01.521Z,10.00
2018-11-03T12:05:30.295Z,8.80
2018-11-03T12:07:59.062Z,9.47
2018-11-03T12:10:27.843Z,8.80
2018-11-03T12:12:56.624Z,8.63
2018-11-03T12:15:25.343Z,8.00
2018-11-03T12:17:54.097Z,8.00
2018-11-03T12:20:22.834Z,8.43
2018-11-03T12:22:51.551Z,7.33
2018-11-03T12:25:20.233Z,7.87
2018-11-03T12:27:49.222Z,12.95
2018-11-03T12:30:17.990Z,8.93
2018-11-03T12:32:46.738Z,7.40
2018-11-03T12:35:15.634Z,6.45
2018-11-03T12:37:44.673Z,6.57
2018-11-03T12:40:15.466Z,5.47
2018-11-03T12:42:44.407Z,5.55
2018-11-03T12:45:13.620Z,5.62
2018-11-03T12:47:42.726Z,5.03
2018-11-03T12:50:14.146Z,6.20
2018-11-03T12:52:42.920Z,4.78
2018-11-03T12:55:11.991Z,4.77
2018-11-03T12:57:41.699Z,4.77
2018-11-03T13:00:12.242Z,4.63
2018-11-03T13:02:41.636Z,4.50
2018-11-03T13:05:10.791Z,4.50
2018-11-03T13:07:40.543Z,5.43
2018-11-03T13:10:10.272Z,5.20
2018-11-03T13:12:39.693Z,4.40
2018-11-03T13:15:09.361Z,4.60
2018-11-03T13:17:38.639Z,5.05
2018-11-03T13:20:09.752Z,5.12
2018-11-03T13:22:38.478Z,4.73
2018-11-03T13:25:08.862Z,5.28
2018-11-03T13:27:38.795Z,4.83
2018-11-03T13:30:09.988Z,5.47
2018-11-03T13:32:39.483Z,4.43
2018-11-03T13:35:09.279Z,5.45
2018-11-03T13:37:38.221Z,5.87
2018-11-03T13:40:08.077Z,6.27
2018-11-03T13:42:36.779Z,5.70
2018-11-03T13:45:06.325Z,4.90
2018-11-03T13:47:35.325Z,5.20
2018-11-03T13:50:07.806Z,6.77
2018-11-03T13:52:37.097Z,7.07
2018-11-03T13:55:06.331Z,5.10
2018-11-03T13:57:35.059Z,4.47
2018-11-03T14:00:04.003Z,4.03
2018-11-03T14:02:32.818Z,4.80
2018-11-03T14:05:01.544Z,3.90
2018-11-03T14:07:30.391Z,4.43
2018-11-03T14:09:59.111Z,4.60
2018-11-03T14:12:27.865Z,4.00
2018-11-03T14:14:56.704Z,4.20
2018-11-03T14:17:25.468Z,4.00
2018-11-03T14:19:54.160Z,4.97
2018-11-03T14:22:23.011Z,4.13
2018-11-03T14:24:52.649Z,3.80
2018-11-03T14:27:21.351Z,16.20
2018-11-03T14:29:50.166Z,5.65
2018-11-03T14:32:18.870Z,3.37
2018-11-03T14:34:47.594Z,4.00
2018-11-03T14:37:16.474Z,3.35
2018-11-03T14:39:45.218Z,4.00
2018-11-03T14:42:14.154Z,3.62
2018-11-03T14:44:43.102Z,3.40
2018-11-03T14:47:11.784Z,3.90
2018-11-03T14:49:40.793Z,3.63
2018-11-03T14:52:09.883Z,6.83
2018-11-03T14:54:38.596Z,18.70
2018-11-03T14:57:08.522Z,6.40
2018-11-03T14:59:37.593Z,17.40
2018-11-03T15:02:06.351Z,42.00
2018-11-03T15:04:36.023Z,7.47
2018-11-03T15:07:05.098Z,4.20
2018-11-03T15:09:33.814Z,4.80
2018-11-03T15:12:02.524Z,4.67
2018-11-03T15:14:31.281Z,5.00
2018-11-03T15:17:00.072Z,5.47
2018-11-03T15:19:28.869Z,4.90
2018-11-03T15:21:57.746Z,4.87
2018-11-03T15:24:26.432Z,4.13
2018-11-03T15:26:55.123Z,4.30
2018-11-03T15:29:23.868Z,3.67
2018-11-03T15:31:52.626Z,3.37
2018-11-03T15:34:21.381Z,3.30
2018-11-03T15:36:50.348Z,3.63
2018-11-03T15:39:19.063Z,3.67
2018-11-03T15:41:47.852Z,3.40
2018-11-03T15:44:16.890Z,3.70
2018-11-03T15:46:45.771Z,3.40
2018-11-03T15:49:15.167Z,4.00
2018-11-03T15:51:44.054Z,4.27
2018-11-03T15:54:12.862Z,4.28
2018-11-03T15:56:41.607Z,4.30
2018-11-03T15:59:10.467Z,5.87
2018-11-03T16:01:39.178Z,6.97
2018-11-03T16:04:08.648Z,5.53
2018-11-03T16:06:37.476Z,5.50
2018-11-03T16:09:09.114Z,5.10
2018-11-03T16:11:38.647Z,5.30
2018-11-03T16:14:07.701Z,5.10
2018-11-03T16:16:36.514Z,5.37
2018-11-03T16:19:05.915Z,5.53
2018-11-03T16:21:34.615Z,5.40
2018-11-03T16:24:03.366Z,5.80
2018-11-03T16:26:32.384Z,5.53
2018-11-03T16:29:01.142Z,4.77
2018-11-03T16:31:36.554Z,5.10
2018-11-03T16:34:05.620Z,8.57
2018-11-03T16:36:34.286Z,5.67
2018-11-03T16:39:03.208Z,5.53
2018-11-03T16:41:32.108Z,6.30
2018-11-03T16:44:00.807Z,5.97
2018-11-03T16:46:29.665Z,5.73
2018-11-03T16:48:58.382Z,6.30
2018-11-03T16:51:27.054Z,5.80
2018-11-03T16:53:55.996Z,6.63
2018-11-03T16:56:24.738Z,7.15
2018-11-03T16:58:53.497Z,6.35
2018-11-03T17:01:22.376Z,6.28
2018-11-03T17:03:51.105Z,6.50
2018-11-03T17:06:20.028Z,6.42
2018-11-03T17:08:48.836Z,6.55
2018-11-03T17:11:17.615Z,6.50
2018-11-03T17:13:46.343Z,6.70
2018-11-03T17:16:15.421Z,6.37
2018-11-03T17:18:44.156Z,6.20
2018-11-03T17:21:12.976Z,8.63
2018-11-03T17:23:41.818Z,8.15
2018-11-03T17:26:10.549Z,8.03
2018-11-03T17:28:39.326Z,7.00
2018-11-03T17:31:08.927Z,6.80
2018-11-03T17:33:37.758Z,6.57
2018-11-03T17:36:06.613Z,7.20
2018-11-03T17:38:35.358Z,6.63
2018-11-03T17:41:04.170Z,6.60
2018-11-03T17:43:33.113Z,7.07
2018-11-03T17:46:02.290Z,6.57
2018-11-03T17:48:31.251Z,6.63
2018-11-03T17:51:00.015Z,6.40
2018-11-03T17:53:28.765Z,9.87
2018-11-03T17:55:57.578Z,9.83
2018-11-03T17:58:26.328Z,8.47
2018-11-03T18:00:55.464Z,7.17
2018-11-03T18:03:24.119Z,7.10
2018-11-03T18:05:52.863Z,6.87
2018-11-03T18:08:22.003Z,8.28
2018-11-03T18:10:50.686Z,7.35
2018-11-03T18:13:19.476Z,12.57
2018-11-03T18:15:48.263Z,11.28
2018-11-03T18:18:17.049Z,13.90
2018-11-03T18:20:45.976Z,7.53
2018-11-03T18:23:14.883Z,7.87
2018-11-03T18:25:43.578Z,7.87
2018-11-03T18:28:12.384Z,10.30
2018-11-03T18:30:41.340Z,11.17
2018-11-03T18:33:10.052Z,10.23
2018-11-03T18:35:38.930Z,9.55
2018-11-03T18:38:07.870Z,7.30
2018-11-03T18:40:36.989Z,7.70
2018-11-03T18:43:06.759Z,7.60
2018-11-03T18:45:35.691Z,7.70
2018-11-03T18:48:05.469Z,9.90
2018-11-03T18:50:34.426Z,9.20
2018-11-03T18:53:03.382Z,10.37
2018-11-03T18:55:32.209Z,7.10
2018-11-03T18:58:00.958Z,7.22
2018-11-03T19:00:29.828Z,7.13
2018-11-03T19:02:58.619Z,6.87
2018-11-03T19:05:27.494Z,6.23
2018-11-03T19:07:56.453Z,6.67
2018-11-03T19:10:25.708Z,6.50
2018-11-03T19:12:54.879Z,6.83
2018-11-03T19:15:23.925Z,6.27
2018-11-03T19:17:52.772Z,6.00
2018-11-03T19:20:21.559Z,5.45
2018-11-03T19:22:50.447Z,5.77
2018-11-03T19:25:19.271Z,5.63
2018-11-03T19:27:48.132Z,10.23
2018-11-03T19:30:17.219Z,6.75
2018-11-03T19:32:46.172Z,6.47
2018-11-03T19:35:15.060Z,6.40
2018-11-03T19:37:44.609Z,6.58
2018-11-03T19:40:14.189Z,5.90
2018-11-03T19:42:43.322Z,6.00
2018-11-03T19:45:13.009Z,5.97
2018-11-03T19:47:41.837Z,5.93
2018-11-03T19:50:11.208Z,6.70
2018-11-03T19:52:40.346Z,5.83
2018-11-03T19:55:09.284Z,12.70
2018-11-03T19:57:39.174Z,13.35
2018-11-03T20:00:10.869Z,21.30
2018-11-03T20:02:39.817Z,18.40
2018-11-03T20:05:10.043Z,14.18
2018-11-03T20:07:39.229Z,11.40
2018-11-03T20:10:09.281Z,9.43
2018-11-03T20:12:39.256Z,9.10
2018-11-03T20:15:09.744Z,9.13
2018-11-03T20:17:39.104Z,7.90
2018-11-03T20:20:09.676Z,8.87
2018-11-03T20:22:39.314Z,9.00
2018-11-03T20:25:10.633Z,9.03
2018-11-03T20:27:39.558Z,9.13
2018-11-03T20:30:12.329Z,12.40
2018-11-03T20:32:41.230Z,12.15
2018-11-03T20:35:11.481Z,14.67
2018-11-03T20:37:40.563Z,16.03
2018-11-03T20:40:11.090Z,13.70
2018-11-03T20:42:39.922Z,21.00
2018-11-03T20:45:09.522Z,13.28
2018-11-03T20:47:39.387Z,10.53
2018-11-03T20:50:11.159Z,11.33
2018-11-03T20:52:40.167Z,11.20
2018-11-03T20:55:09.566Z,11.45
2018-11-03T20:57:39.358Z,9.78
2018-11-03T21:00:10.475Z,9.60
2018-11-03T21:02:39.170Z,9.80
2018-11-03T21:05:09.270Z,10.80
2018-11-03T21:07:38.225Z,10.73
2018-11-03T21:10:07.210Z,9.95
2018-11-03T21:12:36.052Z,10.77
2018-11-03T21:15:04.840Z,9.73
2018-11-03T21:17:33.583Z,9.80
2018-11-03T21:20:02.702Z,18.73
2018-11-03T21:22:31.423Z,14.60
2018-11-03T21:25:00.205Z,11.22
2018-11-03T21:27:29.046Z,10.70
2018-11-03T21:29:57.838Z,10.53
2018-11-03T21:32:26.609Z,10.13
2018-11-03T21:34:55.401Z,9.97
2018-11-03T21:37:24.198Z,10.20
2018-11-03T21:39:53.087Z,11.15
2018-11-03T21:42:21.895Z,10.10
2018-11-03T21:44:50.643Z,10.77
2018-11-03T21:47:19.380Z,10.50
2018-11-03T21:49:48.336Z,11.67
2018-11-03T21:52:17.098Z,10.70
2018-11-03T21:54:45.989Z,10.63
2018-11-03T21:57:17.620Z,10.03
2018-11-03T21:59:46.345Z,11.00
2018-11-03T22:02:15.201Z,12.35
2018-11-03T22:04:43.886Z,10.63
2018-11-03T22:07:12.667Z,10.17
2018-11-03T22:09:41.645Z,10.80
2018-11-03T22:12:10.370Z,11.00
2018-11-03T22:14:39.322Z,11.20
2018-11-03T22:17:08.533Z,10.93
2018-11-03T22:19:37.250Z,10.55
2018-11-03T22:22:06.014Z,10.63
2018-11-03T22:24:34.827Z,11.50
2018-11-03T22:27:03.595Z,11.40
2018-11-03T22:29:38.983Z,11.83
2018-11-03T22:32:07.707Z,11.07
2018-11-03T22:34:36.465Z,11.83
2018-11-03T22:37:05.393Z,11.23
2018-11-03T22:39:34.091Z,11.10
2018-11-03T22:42:02.892Z,11.37
2018-11-03T22:44:31.717Z,11.23
2018-11-03T22:47:00.541Z,13.00
2018-11-03T22:49:29.223Z,12.40
2018-11-03T22:51:58.058Z,13.00
2018-11-03T22:54:26.762Z,15.13
2018-11-03T22:56:55.712Z,12.68
2018-11-03T22:59:24.486Z,13.98
2018-11-03T23:01:53.320Z,14.03
2018-11-03T23:04:22.062Z,13.20
2018-11-03T23:06:50.923Z,12.03
2018-11-03T23:09:19.650Z,11.57
2018-11-03T23:11:48.416Z,13.10
2018-11-03T23:14:17.560Z,13.77
2018-11-03T23:16:46.251Z,13.17
2018-11-03T23:19:15.010Z,12.70
2018-11-03T23:21:43.880Z,13.43
2018-11-03T23:24:12.595Z,13.30
2018-11-03T23:26:41.449Z,13.07
2018-11-03T23:29:10.354Z,12.03
2018-11-03T23:31:39.538Z,13.15
2018-11-03T23:34:08.252Z,11.63
2018-11-03T23:36:37.045Z,14.70
2018-11-03T23:39:08.464Z,12.57
2018-11-03T23:41:37.148Z,13.30
2018-11-03T23:44:06.091Z,13.30
2018-11-03T23:46:34.829Z,12.47
2018-11-03T23:49:03.637Z,12.40
2018-11-03T23:51:32.862Z,11.73
2018-11-03T23:54:08.215Z,12.03
2018-11-03T23:56:36.941Z,13.13
2018-11-03T23:59:06.114Z,13.10
